createdAt,value
2023-12-23T00:00:19.522Z,98252.06
2023-12-23T00:05:21.455Z,98281.22
2023-12-23T00:10:23.340Z,98302.09
2023-12-23T00:15:25.046Z,98305.31
2023-12-23T00:20:26.730Z,98320.00
2023-12-23T00:25:28.385Z,98336.34
2023-12-23T00:30:30.306Z,98328.59
2023-12-23T00:35:32.162Z,98338.56
2023-12-23T00:40:34.050Z,98347.84
2023-12-23T00:45:35.751Z,98367.72
2023-12-23T00:50:37.393Z,98363.00
2023-12-23T00:55:39.627Z,98356.78
2023-12-23T01:00:41.325Z,98327.28
2023-12-23T01:05:43.051Z,98354.66
2023-12-23T01:10:44.747Z,98364.94
2023-12-23T01:15:46.561Z,98376.03
2023-12-23T01:20:49.210Z,98397.25
2023-12-23T01:25:50.916Z,98423.19
2023-12-23T01:30:52.823Z,98425.13
2023-12-23T01:35:54.678Z,98474.50
2023-12-23T01:40:56.353Z,98475.25
2023-12-23T01:46:01.435Z,98490.81
2023-12-23T01:51:03.545Z,98488.53
2023-12-23T01:56:05.641Z,98509.66
2023-12-23T02:01:07.940Z,98522.66
2023-12-23T02:06:09.925Z,98534.09
2023-12-23T02:11:14.852Z,98560.50
2023-12-23T02:16:16.785Z,98560.31
2023-12-23T02:21:18.486Z,98571.81
2023-12-23T02:26:23.120Z,98574.28
2023-12-23T02:31:25.022Z,98590.31
2023-12-23T02:36:26.919Z,98602.03
2023-12-23T02:41:28.692Z,98617.72
2023-12-23T02:46:30.360Z,98622.75
2023-12-23T02:51:32.872Z,98632.28
2023-12-23T02:56:34.619Z,98651.28
2023-12-23T03:01:36.297Z,98651.09
2023-12-23T03:06:38.009Z,98665.66
2023-12-23T03:11:39.742Z,98676.63
2023-12-23T03:16:41.480Z,98684.25
2023-12-23T03:21:44.486Z,98704.91
2023-12-23T03:26:46.209Z,98717.94
2023-12-23T03:31:47.935Z,98718.09
2023-12-23T03:36:49.637Z,98733.09
2023-12-23T03:41:51.270Z,98752.91
2023-12-23T03:46:57.225Z,98765.09
2023-12-23T03:51:59.149Z,98773.38
2023-12-23T03:57:00.814Z,98791.16
2023-12-23T04:02:02.567Z,98795.59
2023-12-23T04:07:04.668Z,98808.88
2023-12-23T04:12:06.908Z,98811.84
2023-12-23T04:17:08.661Z,98816.09
2023-12-23T04:22:10.379Z,98828.59
2023-12-23T04:27:12.069Z,98835.56
2023-12-23T04:32:14.461Z,98845.91
2023-12-23T04:37:16.495Z,98848.94
2023-12-23T04:42:18.204Z,98854.84
2023-12-23T04:47:20.258Z,98852.25
2023-12-23T04:52:22.065Z,98848.25
2023-12-23T04:57:23.757Z,98862.16
2023-12-23T05:02:25.434Z,98860.97
2023-12-23T05:07:27.106Z,98855.28
2023-12-23T05:12:28.791Z,98849.53
2023-12-23T05:17:30.654Z,98857.44
2023-12-23T05:22:32.363Z,98856.75
2023-12-23T05:27:34.690Z,98850.03
2023-12-23T05:32:36.477Z,98841.09
2023-12-23T05:37:38.346Z,98838.03
2023-12-23T05:42:40.118Z,98841.25
2023-12-23T05:47:44.253Z,98845.78
2023-12-23T05:52:46.084Z,98835.47
2023-12-23T05:57:47.821Z,98839.38
2023-12-23T06:02:49.886Z,98833.94
2023-12-23T06:07:51.719Z,98832.84
2023-12-23T06:12:53.582Z,98830.13
2023-12-23T06:17:56.413Z,98835.19
2023-12-23T06:22:58.946Z,98824.31
2023-12-23T06:28:00.692Z,98823.59
2023-12-23T06:33:02.464Z,98817.06
2023-12-23T06:38:04.350Z,98808.41
2023-12-23T06:43:43.332Z,98788.38
2023-12-23T06:48:31.282Z,98810.53
2023-12-23T06:53:34.909Z,98813.06
2023-12-23T06:58:36.575Z,98811.88
2023-12-23T07:03:38.235Z,98815.53
2023-12-23T07:08:40.581Z,98784.69
2023-12-23T07:13:42.244Z,98802.13
2023-12-23T07:18:44.411Z,98795.75
2023-12-23T07:23:46.352Z,98805.50
2023-12-23T07:28:47.990Z,98792.13
2023-12-23T07:33:49.700Z,98804.41
2023-12-23T07:38:51.390Z,98777.44
2023-12-23T07:43:53.642Z,98779.47
2023-12-23T07:48:55.396Z,98772.81
2023-12-23T07:53:57.173Z,98759.72
2023-12-23T07:58:59.216Z,98749.06
2023-12-23T08:04:01.079Z,98746.50
2023-12-23T08:09:02.988Z,98744.88
2023-12-23T08:14:05.187Z,98717.38
2023-12-23T08:19:06.982Z,98725.31
2023-12-23T08:24:08.694Z,98717.59
2023-12-23T08:29:11.695Z,98719.75
2023-12-23T08:34:13.763Z,98704.25
2023-12-23T08:39:15.539Z,98694.75
2023-12-23T08:44:17.353Z,98694.94
2023-12-23T08:49:19.178Z,98688.16
2023-12-23T08:54:20.942Z,98691.25
2023-12-23T08:59:22.650Z,98667.78
2023-12-23T09:04:24.338Z,98680.59
2023-12-23T09:09:25.999Z,98679.13
2023-12-23T09:14:28.087Z,98683.47
2023-12-23T09:19:29.786Z,98656.66
2023-12-23T09:24:31.451Z,98651.13
2023-12-23T09:29:33.102Z,98646.31
2023-12-23T09:34:34.792Z,98637.91
2023-12-23T09:39:36.477Z,98637.00
2023-12-23T09:44:38.397Z,98644.72
2023-12-23T09:49:40.054Z,98635.81
2023-12-23T09:54:49.459Z,98622.38
2023-12-23T09:59:52.297Z,98602.31
2023-12-23T10:04:54.125Z,98613.91
2023-12-23T10:09:55.972Z,98594.44
2023-12-23T10:14:57.709Z,98585.38
2023-12-23T10:19:59.547Z,98576.06
2023-12-23T10:25:01.934Z,98569.97
2023-12-23T10:30:04.903Z,98550.97
2023-12-23T10:35:08.058Z,98566.94
2023-12-23T10:40:19.646Z,98547.44
2023-12-23T10:45:22.538Z,98539.50
2023-12-23T10:50:24.421Z,98550.09
2023-12-23T10:55:26.380Z,98544.22
2023-12-23T11:00:28.020Z,98530.59
2023-12-23T11:05:30.175Z,98529.13
2023-12-23T11:10:32.820Z,98532.13
2023-12-23T11:15:38.549Z,98536.09
2023-12-23T11:20:45.817Z,98535.13
2023-12-23T11:25:47.502Z,98544.38
2023-12-23T11:30:56.004Z,98536.84
2023-12-23T11:36:02.630Z,98531.78
2023-12-23T11:41:05.490Z,98538.66
2023-12-23T11:46:07.245Z,98557.75
2023-12-23T11:51:10.413Z,98549.47
2023-12-23T11:56:12.271Z,98558.53
2023-12-23T12:01:14.095Z,98555.03
2023-12-23T12:06:15.990Z,98559.03
2023-12-23T12:11:18.688Z,98564.72
2023-12-23T12:16:20.470Z,98558.06
2023-12-23T12:21:22.206Z,98564.91
2023-12-23T12:26:23.930Z,98566.91
2023-12-23T12:31:25.638Z,98565.25
2023-12-23T12:36:27.339Z,98576.53
2023-12-23T12:41:29.267Z,98584.72
2023-12-23T12:46:33.357Z,98587.44
2023-12-23T12:51:38.006Z,98611.72
2023-12-23T12:56:40.966Z,98606.22
2023-12-23T13:01:42.623Z,98609.38
2023-12-23T13:06:44.466Z,98620.88
2023-12-23T13:11:46.113Z,98608.53
2023-12-23T13:16:47.940Z,98630.44
2023-12-23T13:21:49.889Z,98650.50
2023-12-23T13:26:51.539Z,98646.09
2023-12-23T13:31:53.247Z,98659.59
2023-12-23T13:36:55.062Z,98658.63
2023-12-23T13:41:56.771Z,98681.41
2023-12-23T13:47:01.438Z,98694.63
2023-12-23T13:52:03.561Z,98694.25
2023-12-23T13:57:05.508Z,98711.66
2023-12-23T14:02:09.259Z,98715.81
2023-12-23T14:07:11.329Z,98730.69
2023-12-23T14:12:13.029Z,98753.28
2023-12-23T14:17:14.747Z,98755.84
2023-12-23T14:22:18.906Z,98765.34
2023-12-23T14:27:20.819Z,98778.16
2023-12-23T14:32:22.494Z,98797.09
2023-12-23T14:37:27.891Z,98795.84
2023-12-23T14:42:33.829Z,98818.16
2023-12-23T14:47:35.535Z,98822.91
2023-12-23T14:52:37.319Z,98825.41
2023-12-23T14:57:38.957Z,98840.59
2023-12-23T15:02:41.071Z,98838.94
2023-12-23T15:07:42.717Z,98861.41
2023-12-23T15:12:44.516Z,98854.72
2023-12-23T15:17:46.437Z,98859.28
2023-12-23T15:22:48.224Z,98876.16
2023-12-23T15:27:49.894Z,98876.13
2023-12-23T15:32:51.894Z,98877.97
2023-12-23T15:37:53.860Z,98870.16
2023-12-23T15:42:55.593Z,98877.28
2023-12-23T15:47:57.265Z,98878.78
2023-12-23T15:52:59.098Z,98883.25
2023-12-23T15:58:02.930Z,98888.38
2023-12-23T16:03:04.988Z,98896.88
2023-12-23T16:08:09.622Z,98908.19
2023-12-23T16:13:13.217Z,98920.84
2023-12-23T16:18:14.959Z,98929.22
2023-12-23T16:23:16.762Z,98926.16
2023-12-23T16:28:18.536Z,98926.41
2023-12-23T16:33:20.389Z,98930.16
2023-12-23T16:38:22.127Z,98948.41
2023-12-23T16:43:23.775Z,98945.94
2023-12-23T16:48:25.574Z,98953.16
2023-12-23T16:53:27.421Z,98951.88
2023-12-23T16:58:29.757Z,98958.19
2023-12-23T17:03:31.568Z,98976.88
2023-12-23T17:08:33.297Z,98965.72
2023-12-23T17:13:34.973Z,98968.44
2023-12-23T17:18:36.720Z,98963.56
2023-12-23T17:23:38.588Z,98973.75
2023-12-23T17:28:40.406Z,98981.03
2023-12-23T17:33:42.228Z,98987.34
2023-12-23T17:38:44.341Z,98989.22
2023-12-23T17:43:46.061Z,98997.50
2023-12-23T17:48:47.930Z,98972.38
2023-12-23T17:53:49.695Z,98979.34
2023-12-23T17:58:51.641Z,98984.34
2023-12-23T18:03:53.258Z,98982.66
2023-12-23T18:08:54.919Z,98994.69
2023-12-23T18:13:56.599Z,98988.81
2023-12-23T18:18:58.330Z,99004.56
2023-12-23T18:24:01.797Z,98997.44
2023-12-23T18:29:03.529Z,99014.59
2023-12-23T18:34:05.797Z,99019.34
2023-12-23T18:39:07.544Z,99020.59
2023-12-23T18:44:09.672Z,99018.28
2023-12-23T18:49:11.839Z,98997.91
2023-12-23T18:54:13.539Z,99021.75
2023-12-23T18:59:16.867Z,99018.81
2023-12-23T19:04:18.747Z,99023.81
2023-12-23T19:09:20.536Z,99016.28
2023-12-23T19:14:22.217Z,99030.94
2023-12-23T19:19:23.934Z,99044.25
2023-12-23T19:24:25.677Z,99046.25
2023-12-23T19:29:27.581Z,99052.75
2023-12-23T19:34:29.312Z,99064.09
2023-12-23T19:39:30.981Z,99065.88
2023-12-23T19:44:33.488Z,99055.00
2023-12-23T19:49:35.229Z,99047.63
2023-12-23T19:54:36.881Z,99053.44
2023-12-23T19:59:38.770Z,99058.47
2023-12-23T20:04:40.525Z,99051.19
2023-12-23T20:09:42.200Z,99058.19
2023-12-23T20:14:44.966Z,99051.59
2023-12-23T20:19:46.671Z,99045.34
2023-12-23T20:24:48.370Z,99049.81
2023-12-23T20:29:50.052Z,99051.50
2023-12-23T20:34:51.876Z,99044.81
2023-12-23T20:39:53.586Z,99050.34
2023-12-23T20:44:55.228Z,99051.19
2023-12-23T20:49:58.740Z,99063.19
2023-12-23T20:55:00.426Z,99064.59
2023-12-23T21:00:03.225Z,99054.56
2023-12-23T21:05:05.314Z,99054.25
2023-12-23T21:10:08.452Z,99049.09
2023-12-23T21:15:11.105Z,99037.53
2023-12-23T21:20:12.897Z,99023.59
2023-12-23T21:25:14.675Z,99040.47
2023-12-23T21:30:16.657Z,99041.56
2023-12-23T21:35:18.472Z,99040.03
2023-12-23T21:40:20.868Z,99043.09
2023-12-23T21:45:22.487Z,99033.47
2023-12-23T21:50:24.281Z,99020.19
2023-12-23T21:55:29.538Z,99016.28
2023-12-23T22:00:31.233Z,99020.22
2023-12-23T22:05:32.982Z,99033.91
2023-12-23T22:10:35.125Z,99020.50
2023-12-23T22:15:36.842Z,99012.66
2023-12-23T22:20:38.585Z,99010.16
2023-12-23T22:25:40.572Z,99001.22
2023-12-23T22:30:42.304Z,99001.63
2023-12-23T22:35:47.215Z,99018.63
2023-12-23T22:40:49.485Z,99004.81
2023-12-23T22:45:51.134Z,98989.06
2023-12-23T22:50:52.797Z,98981.13
2023-12-23T22:55:54.602Z,98974.44
2023-12-23T23:00:56.414Z,98964.50
2023-12-23T23:05:58.583Z,98974.22
2023-12-23T23:11:00.394Z,98987.22
2023-12-23T23:16:02.156Z,98979.94
2023-12-23T23:21:03.986Z,98957.34
2023-12-23T23:26:06.684Z,98981.34
2023-12-23T23:31:08.370Z,98960.63
2023-12-23T23:36:17.382Z,98969.72
2023-12-23T23:41:19.536Z,98959.91
2023-12-23T23:46:21.734Z,98957.75
2023-12-23T23:51:23.794Z,98940.84
2023-12-23T23:56:25.632Z,98931.81
